Miami, FL

8:01 PM EDT on September 28, 2016 (GMT -0400)
Miami International | | Change Station

Elev 13 ft 25.79 °N, 80.32 °W | Updated 8 minutes ago

Scattered Clouds
Scattered Clouds
86 °F
Feels Like 101 °F
N
7
Wind Variable Wind from SSW

Today
High -- | Low -- °F
--% Chance of Precip.
Yesterday
High -- | Low -- °F
Precip. -- in
Pressure 30.01 in
Visibility 10.0 miles
Clouds Few 2500 ft
Few 4500 ft
Few 13000 ft
Scattered Clouds 25000 ft
Heat Index 101 °F
Dew Point 80 °F
Humidity 82%
Rainfall 0.00 in
Snow Depth Not available.
7:12 AM 7:10 PM
Waning Crescent, 4% visible
METAR KMIA 282353Z 21006KT 10SM FEW025 FEW045 FEW130 SCT250 30/27 A3000 RMK AO2 SLP160 T03000267 10317 20283 51009
Pressure 30.01 in
Visibility 10.0 miles
Clouds Few 2500 ft
Few 4500 ft
Few 13000 ft
Scattered Clouds 25000 ft
Heat Index 101 °F
Dew Point 80 °F
Humidity 82%
Rainfall 0.00 in
Snow Depth Not available.
7:12 AM 7:10 PM
Waning Crescent, 4% visible
METAR KMIA 282353Z 21006KT 10SM FEW025 FEW045 FEW130 SCT250 30/27 A3000 RMK AO2 SLP160 T03000267 10317 20283 51009

10-Day Weather Forecast

Almanac

Astronomy

Sep. 28, 2016 Rise Set
Actual Time
Civil Twilight
Nautical Twilight
Astronomical Twilight
Moon
Length of Visible Light
Length of Day
Tomorrow will be .
, % of the Moon is Illuminated

Today's Extremes

State Highs State Lows

Community

WunderPhotos

Upload Photos

1,942,355 photos uploaded!

WunderBlog® & News

Nearby

Air Quality

  Air Quality AQ Index Pollutant
Not available.

Snow Depth

Station Depth Elevation

Earthquake Activity

City Distance Mag. Time & Date
Minimum magnitude displayed is 2.5.

Coastal Water Temperatures

Place Temperature

Stations

Nearby Weather Stations

Station Location Temp. Windchill Dew Point Humidity Wind Precip. Elev Updated Type
                   

Watches & Warnings

There are currently no watches in effect.